Latest Coastal Weather Observations for Cocos Island

IDW60701

Issued at 3:12 am WST Tuesday 4 August 2015 (issued every 10 minutes, with the page automatically refreshed every 10 minutes)

About coastal observations | Map of coastal stations | Coastal observations for WA | Marine services | Other Formats
Station Details ID: 200284 Name: COCOS ISLAND AIRPORT Lat: -12.19 Lon: 96.83 Height: 3.0 m
Data from the previous 72 hours. | See also: Recent months at Cocos Island
Date/Time
WST
Temp

°C
Wind Pressure Rain
since 9am
mm
Weather Cloud Vis
km
Sea
Height
m
Swell
Dir
 
Speed
knots
Gust
knots
hPa Trend Height
m
Period
s
Dir
04/03:00am 26.0 ESE 11 13 1014.6 - 0.0 - - 10 - - - -
04/02:30am 25.9 SE 10 14 1015.0 - 0.0 - Partly cloudy 10 - - - -
04/02:00am 26.1 ESE 11 15 1015.2 - 0.0 - - 10 - - - -
04/01:30am 26.2 ESE 13 17 1015.4 - 0.0 - - 10 - - - -
04/01:00am 26.2 ESE 13 16 1015.5 - 0.0 - Partly cloudy 10 - - - -
04/12:30am 26.4 ESE 11 16 1015.8 - 0.0 - Partly cloudy 10 - - - -
04/12:00am 26.4 ESE 12 15 1015.8 - 0.0 - Partly cloudy 10 - - - -
 
Date/Time
WST
Temp

°C
Wind Pressure Rain
since 9am
mm
Weather Cloud Vis
km
Sea
Height
m
Swell
Dir
 
Speed
knots
Gust
knots
hPa Trend Height
m
Period
s
Dir
03/11:30pm 26.5 ESE 12 15 1015.6 - 0.0 - Partly cloudy 10 - - - -
03/11:00pm 26.5 ESE 14 17 1015.6 - 0.0 - Mostly clear 10 - - - -
03/10:30pm 26.0 ESE 10 14 1015.4 - 0.0 - Partly cloudy 10 - - - -
03/10:00pm 26.4 ESE 13 16 1015.4 - 0.0 - Partly cloudy 10 - - - -
03/09:30pm 26.7 SE 13 18 1015.1 - 0.0 - Partly cloudy 10 - - - -
03/09:00pm 26.5 SE 13 17 1014.8 - 0.0 - - 10 - - - -
03/08:30pm 26.5 ESE 14 18 1014.5 - 0.0 - Partly cloudy 10 - - - -
03/08:00pm 26.6 SE 14 19 1014.1 - 0.0 - Mostly cloudy 10 - - - -
03/07:30pm 26.7 SE 14 19 1013.7 - 0.0 - Partly cloudy 10 - - - -
03/07:00pm 26.8 SE 12 16 1013.6 - 0.0 - Partly cloudy 10 - - - -
03/06:30pm 27.2 SE 13 16 1013.4 - 0.0 - Partly cloudy 10 - - - -
03/06:00pm 27.5 SE 12 16 1013.3 - 0.0 - Mostly clear 10 - - - -
03/05:30pm 27.6 SE 13 16 1013.4 - 0.0 - Mostly clear 10 - - - -
03/05:00pm 27.6 SE 13 18 1013.5 - 0.0 Fine Partly cloudy 20 - - - -
03/04:30pm 27.8 SE 14 18 1013.3 - 0.0 - Mostly clear 10 - - - -
03/04:00pm 27.9 SE 14 18 1013.4 - 0.0 - Mostly clear 10 - - - -
03/03:30pm 27.9 SE 13 17 1013.6 - 0.0 - Mostly clear 10 - - - -
03/03:00pm 27.9 SE 14 19 1014.0 - 0.0 - Mostly clear 10 - - - -
03/02:30pm 28.1 SE 14 18 1014.2 - 0.0 - Mostly clear 10 - - - -
03/02:00pm 28.0 SE 13 18 1014.7 - 0.0 Fine Mostly cloudy 18 - - - -
03/01:30pm 28.0 ESE 14 20 1015.1 - 0.0 - Mostly clear 10 - - - -
03/01:00pm 27.9 ESE 13 18 1015.5 - 0.0 - Mostly clear 10 - - - -
03/12:30pm 27.9 ESE 14 19 1015.8 - 0.0 - Mostly clear 10 - - - -
03/12:00pm 27.5 ESE 16 19 1015.9 - 0.0 - Mostly clear 10 - - - -
03/11:30am 27.4 ESE 14 20 1015.8 - 0.0 - Mostly clear 10 - - - -
03/11:00am 27.4 SE 15 21 1016.0 - 1.4 Fine Partly cloudy 15 - - - -
03/10:30am 27.1 ESE 15 19 1015.9 - 1.4 - Mostly clear 10 - - - -
03/10:00am 27.0 ESE 16 20 1015.7 - 1.4 - Mostly clear 10 - - - -
03/09:30am 26.5 SE 15 19 1015.7 - 1.4 - Mostly clear 10 - - - -
03/09:00am 26.6 ESE 15 19 1015.3 - 1.4 - Mostly clear 10 - - - -
03/08:30am 26.5 ESE 15 19 1015.0 - 1.4 - Mostly clear 10 - - - -
03/08:00am 26.3 ESE 15 20 1014.8 - 1.4 Fine Mostly cloudy 17 - - - -
03/07:30am 26.2 ESE 13 17 1014.7 - 1.4 - Mostly clear 10 - - - -
03/07:00am 26.3 ESE 15 19 1014.5 - 1.4 - Mostly clear 10 - - - -
03/06:30am 26.3 ESE 14 20 1014.3 - 1.4 - - 10 - - - -
03/06:00am 26.0 ESE 13 18 1014.0 - 1.4 - Partly cloudy 10 - - - -
03/05:30am 26.1 ESE 14 20 1013.6 - 1.4 - - 10 - - - -
03/05:00am 26.1 ESE 14 21 1013.7 - 1.4 - Mostly clear 10 - - - -
03/04:30am 26.2 ESE 16 19 1014.0 - 1.4 - Partly cloudy 10 - - - -
03/04:00am 26.1 ESE 17 22 1014.3 - 1.4 - Partly cloudy 10 - - - -
03/03:30am 26.1 ESE 16 21 1014.5 - 1.4 - Partly cloudy 10 - - - -
03/03:00am 26.2 ESE 17 23 1014.7 - 1.4 - Partly cloudy 10 - - - -
03/02:30am 26.2 ESE 15 20 1015.2 - 1.4 - Partly cloudy 10 - - - -
03/02:00am 26.3 ESE 17 23 1015.4 - 1.4 - Mostly clear 10 - - - -
03/01:30am 26.4 ESE 16 22 1015.8 - 1.4 - - 10 - - - -
03/01:00am 26.6 ESE 18 23 1016.1 - 1.4 - Partly cloudy 10 - - - -
03/12:30am 26.6 ESE 18 24 1016.3 - 1.4 - Partly cloudy 10 - - - -
03/12:00am 26.5 SE 16 20 1016.5 - 1.4 - Partly cloudy 10 - - - -
 
Date/Time
WST
Temp

°C
Wind Pressure Rain
since 9am
mm
Weather Cloud Vis
km
Sea
Height
m
Swell
Dir
 
Speed
knots
Gust
knots
hPa Trend Height
m
Period
s
Dir
02/11:30pm 26.8 ESE 19 24 1016.5 - 1.4 - Partly cloudy 10 - - - -
02/11:00pm 26.7 ESE 19 25 1016.5 - 1.4 - Cloudy 10 - - - -
02/10:54pm 26.6 ESE 17 22 1016.3 - 1.4 - Partly cloudy 10 - - - -
02/10:44pm 25.6 SE 14 19 1016.3 - 1.4 - Partly cloudy 6 - - - -
02/10:37pm 24.2 S 21 25 1016.3 - 1.2 - Partly cloudy 6 - - - -
02/10:35pm 24.1 S 23 25 1016.4 - 1.2 - Partly cloudy 8 - - - -
02/10:30pm 25.5 SE 17 27 1016.3 - 1.2 - Partly cloudy 10 - - - -
02/10:27pm 25.5 SE 16 24 1016.5 - 1.2 - Partly cloudy 10 - - - -
02/10:00pm 26.6 ESE 9 14 1016.4 - 1.2 - - 10 - - - -
02/09:30pm 26.6 E 12 16 1016.2 - 1.2 - Partly cloudy 10 - - - -
02/09:00pm 26.5 ESE 14 19 1016.1 - 1.2 - - 10 - - - -
02/08:30pm 25.1 ESE 18 26 1015.6 - 1.2 - Partly cloudy 10 - - - -
02/08:21pm 25.6 ESE 15 25 1015.5 - 1.2 - Partly cloudy 10 - - - -
02/08:00pm 25.8 ESE 10 13 1015.2 - 1.2 - Cloudy 10 - - - -
02/07:54pm 25.4 SE 11 14 1015.2 - 1.2 - Partly cloudy 10 - - - -
02/07:37pm 24.4 ESE 17 25 1015.2 - 1.2 - Partly cloudy 6 - - - -
02/07:30pm 24.9 ESE 16 23 1015.1 - 0.8 - Partly cloudy 10 - - - -
02/07:27pm 25.0 ESE 15 23 1015.2 - 0.8 - Partly cloudy 10 - - - -
02/07:08pm 25.3 E 17 24 1014.9 - 0.4 - Partly cloudy 6 - - - -
02/07:00pm 26.9 ESE 13 20 1014.8 - 0.2 - Partly cloudy 10 - - - -
02/06:30pm 27.0 ESE 13 19 1014.7 - 0.2 - Cloudy 10 - - - -
02/06:00pm 26.4 ESE 15 21 1014.4 - 0.2 - Mostly clear 10 - - - -
02/05:30pm 26.6 ESE 14 22 1014.3 - 0.2 Showers Mostly clear 10 - - - -
02/05:00pm 28.3 E 14 18 1014.1 - 0.2 Distant precip. Partly cloudy 18 - - - -
02/04:30pm 28.3 E 13 19 1014.2 - 0.2 - Mostly clear 10 - - - -
02/04:00pm 27.3 ESE 17 22 1014.2 - 0.2 Showers Mostly clear 10 - - - -
02/03:30pm 28.0 ESE 15 21 1014.3 - 0.2 - Mostly clear 10 - - - -
02/03:00pm 27.9 ESE 15 21 1014.6 - 0.2 - Mostly clear 10 - - - -
02/02:30pm 28.3 E 16 22 1014.9 - 0.2 - Mostly clear 10 - - - -
02/02:00pm 28.4 E 15 21 1015.0 - 0.2 Fine Partly cloudy 17 - - - -
02/01:30pm 28.2 E 15 22 1015.3 - 0.2 - Mostly clear 10 - - - -
02/01:00pm 27.6 E 16 22 1015.4 - 0.2 - Mostly clear 10 - - - -
02/12:30pm 27.3 ESE 17 23 1015.5 - 0.2 - Mostly clear 10 - - - -
02/12:00pm 27.0 E 18 23 1015.8 - 0.0 - Mostly clear 10 - - - -
02/11:30am 27.4 E 17 22 1015.8 - 0.0 - Mostly clear 10 - - - -
02/11:00am 27.2 E 15 21 1015.8 - 22.6 Fine Mostly clear 15 - - - -
02/10:30am 26.2 E 16 22 1015.8 - 22.6 - Partly cloudy 10 - - - -
02/10:12am 25.3 ESE 11 17 1015.7 - 22.6 Showers Partly cloudy 7 - - - -
02/10:00am 24.8 ENE 19 22 1015.7 - 21.4 Showers Partly cloudy 3 - - - -
02/09:49am 24.9 E 13 18 1015.9 - 19.2 Showers Partly cloudy 3 - - - -
02/09:39am 25.7 E 13 18 1015.8 - 18.8 Showers Mostly clear 6 - - - -
02/09:30am 25.7 E 13 18 1015.6 - 18.8 Showers Mostly clear 9 - - - -
02/09:00am 25.5 ESE 13 20 1015.6 - 18.8 - Mostly clear 10 - - - -
02/08:30am 25.8 E 12 16 1015.1 - 18.8 - Mostly clear 10 - - - -
02/08:00am 25.8 E 13 18 1014.7 - 18.8 Recent precip. Partly cloudy 17 - - - -
02/07:30am 25.3 E 13 21 1014.4 - 18.8 Showers Mostly clear 10 - - - -
02/07:00am 25.7 ESE 12 17 1014.1 - 18.6 - Mostly clear 10 - - - -
02/06:55am 25.6 ESE 11 17 1014.0 - 18.6 - Mostly clear 10 - - - -
02/06:44am 25.0 ENE 17 25 1014.0 - 18.2 Showers Partly cloudy 3 - - - -
02/06:30am 25.3 E 9 12 1014.0 - 17.6 - - - - - - -
02/06:00am 26.1 E 11 16 1014.0 - 17.0 - Partly cloudy - - - - -
02/05:30am 26.1 E 11 14 1013.9 - 17.0 - Partly cloudy - - - - -
02/05:00am 26.1 E 12 16 1014.0 - 17.0 - Partly cloudy - - - - -
02/04:30am 26.2 E 12 18 1014.1 - 17.0 - - - - - - -
02/04:00am 26.1 E 12 15 1014.5 - 17.0 - - - - - - -
02/03:30am 26.1 E 11 17 1014.8 - 17.0 - Partly cloudy - - - - -
02/03:00am 26.1 ESE 11 17 1015.0 - 17.0 - Partly cloudy - - - - -
02/02:30am 26.2 E 13 17 1015.3 - 17.0 - Partly cloudy - - - - -
02/02:00am 25.9 E 10 14 1015.6 - 17.0 - - - - - - -
02/01:30am 25.9 E 16 20 1016.1 - 17.0 - Cloudy - - - - -
02/01:00am 25.9 E 15 21 1016.2 - 17.0 - Partly cloudy - - - - -
02/12:30am 25.7 E 20 26 1016.1 - 17.0 - Partly cloudy - - - - -
02/12:00am 26.0 E 21 26 1015.9 - 17.0 - Partly cloudy - - - - -
 
Date/Time
WST
Temp

°C
Wind Pressure Rain
since 9am
mm
Weather Cloud Vis
km
Sea
Height
m
Swell
Dir
 
Speed
knots
Gust
knots
hPa Trend Height
m
Period
s
Dir
01/11:30pm 26.0 E 15 21 1016.2 - 17.0 - Partly cloudy - - - - -
01/11:00pm 25.6 E 14 17 1015.9 - 16.0 - Cloudy - - - - -
01/10:40pm 25.5 E 27 31 1015.7 - 12.8 - Partly cloudy - - - - -
01/10:38pm 26.8 ESE 15 25 1015.7 - 12.8 - Partly cloudy - - - - -
01/10:30pm 26.9 ESE 15 20 1015.4 - 12.8 - Partly cloudy - - - - -
01/10:00pm 26.9 ESE 15 19 1015.3 - 12.8 - Partly cloudy - - - - -
01/09:30pm 26.8 E 15 20 1014.8 - 12.8 - Partly cloudy - - - - -
01/09:00pm 26.7 E 13 19 1014.4 - 12.8 - - - - - - -
01/08:30pm 25.4 SE 12 18 1014.1 - 12.8 - Partly cloudy - - - - -
01/08:00pm 25.2 ESE 15 27 1013.9 - 12.4 - Cloudy - - - - -
01/07:30pm 26.0 E 19 23 1013.6 - 11.6 - Partly cloudy - - - - -
01/07:00pm 25.4 ENE 17 30 1013.5 - 11.0 - Partly cloudy - - - - -
01/06:56pm 25.5 ENE 15 27 1013.5 - 9.0 - Partly cloudy - - - - -
01/06:30pm 25.5 ENE 19 25 1013.4 - 9.0 - Partly cloudy - - - - -
01/06:00pm 27.1 ESE 14 20 1013.1 - 9.0 - Mostly clear 10 - - - -
01/05:30pm 27.1 ESE 17 23 1012.9 - 9.0 - Mostly clear 10 - - - -
01/05:00pm 27.3 ESE 16 22 1013.0 - 9.0 Distant precip. Mostly cloudy 15 - - - -
01/04:30pm 28.0 ESE 15 22 1012.9 - 9.0 - Mostly clear 10 - - - -
01/04:00pm 28.2 E 15 21 1012.9 - 9.0 - Mostly clear 10 - - - -
01/03:30pm 28.2 E 17 24 1013.1 - 9.0 - Mostly clear 10 - - - -
01/03:00pm 27.4 ESE 17 24 1013.5 - 9.0 - Mostly clear 10 - - - -
01/02:30pm 28.0 E 14 20 1013.9 - 9.0 - Mostly clear 8 - - - -
01/02:00pm 28.1 ESE 15 20 1014.1 - 9.0 Fine Mostly cloudy 15 - - - -
01/01:30pm 28.5 ESE 15 21 1014.3 - 9.0 - Mostly clear 10 - - - -
01/01:00pm 27.9 ESE 16 22 1014.5 - 9.0 - Mostly clear 10 - - - -
01/12:30pm 27.5 E 16 23 1014.7 - 9.0 - Mostly clear 10 - - - -
01/12:00pm 26.4 ESE 14 21 1014.9 - 9.0 - Mostly clear 10 - - - -
01/11:49am 25.6 E 12 16 1014.9 - 9.0 Showers Partly cloudy 10 - - - -
01/11:37am 24.6 ESE 19 25 1015.3 - 8.8 Showers Partly cloudy 5 - - - -
01/11:30am 24.2 E 18 25 1015.3 - 7.0 Showers Partly cloudy 2 - - - -
01/11:24am 24.5 E 20 27 1015.4 - 2.2 Showers Partly cloudy 2 - - - -
01/11:18am 25.3 E 20 27 1015.2 - 0.0 Showers Partly cloudy 4 - - - -
01/11:00am 27.2 ESE 15 19 1015.2 - 0.6 Distant precip. Partly cloudy 15 - - - -
01/10:30am 27.7 ESE 13 19 1015.2 - 0.6 - Mostly clear 10 - - - -
01/10:00am 27.4 E 13 19 1015.1 - 0.6 - Mostly clear 10 - - - -
01/09:30am 27.0 ESE 14 21 1014.8 - 0.6 - Mostly clear 10 - - - -
01/09:00am 26.4 ESE 16 22 1014.3 - 0.6 - Mostly clear 10 - - - -
01/08:30am 26.4 E 15 19 1014.0 - 0.6 - Mostly clear 10 - - - -
01/08:00am 26.2 ESE 13 21 1013.7 - 0.6 Fine Mostly clear 20 - - - -
01/07:30am 26.4 ESE 16 20 1013.4 - 0.6 - Mostly clear 10 - - - -
01/07:00am 26.4 E 11 16 1013.3 - 0.6 - Mostly clear 10 - - - -
01/06:30am 26.4 ESE 12 17 1013.1 - 0.6 - Partly cloudy - - - - -
01/06:00am 26.3 E 14 20 1013.1 - 0.6 - - - - - - -
01/05:30am 26.4 E 15 20 1013.1 - 0.6 - Partly cloudy - - - - -
01/05:00am 26.5 ESE 12 17 1013.2 - 0.6 - Mostly clear - - - - -

Other Formats:

Comma delimited format used in spreadsheet applications
http://www.bom.gov.au/fwo/IDW60701/IDW60701.96996.axf

JavaScript Object Notation format (JSON) in row-major order
http://www.bom.gov.au/fwo/IDW60701/IDW60701.96996.json